createdAt,value
2022-07-29T00:00:08.734Z,100378.625
2022-07-29T00:01:08.753Z,100380.9765625
2022-07-29T00:02:08.742Z,100384.953125
2022-07-29T00:03:09.220Z,100384.30078125
2022-07-29T00:04:08.919Z,100384.65625
2022-07-29T00:05:08.859Z,100382.94140625
2022-07-29T00:06:08.731Z,100384.53515625
2022-07-29T00:07:11.726Z,100385.234375
2022-07-29T00:08:12.415Z,100388.96484375
2022-07-29T00:09:08.849Z,100393.34765625
2022-07-29T00:10:08.727Z,100398.5078125
2022-07-29T00:11:08.745Z,100395.71875
2022-07-29T00:12:08.740Z,100397.6328125
2022-07-29T00:13:09.095Z,100397.80078125
2022-07-29T00:14:08.744Z,100396.48828125
2022-07-29T00:15:08.723Z,100399.48046875
2022-07-29T00:16:08.795Z,100401.37890625
2022-07-29T00:17:08.771Z,100404.171875
2022-07-29T00:18:14.795Z,100413.3125
2022-07-29T00:19:08.807Z,100419.15234375
2022-07-29T00:20:08.747Z,100421.2890625
2022-07-29T00:21:08.740Z,100424.78515625
2022-07-29T00:22:08.760Z,100426.453125
2022-07-29T00:23:08.749Z,100426.34375
2022-07-29T00:24:08.818Z,100428.046875
2022-07-29T00:25:08.730Z,100434.91796875
2022-07-29T00:26:08.732Z,100435.890625
2022-07-29T00:27:08.743Z,100436.93359375
2022-07-29T00:28:09.187Z,100439.703125
2022-07-29T00:30:37.810Z,100446.07421875
2022-07-29T00:31:37.822Z,100445.3125
2022-07-29T00:32:38.261Z,100445.58203125
2022-07-29T00:33:37.876Z,100443.25
2022-07-29T00:34:37.860Z,100442.11328125
2022-07-29T00:35:40.864Z,100442.3515625
2022-07-29T00:36:37.765Z,100442.1484375
2022-07-29T00:37:37.994Z,100441.078125
2022-07-29T00:38:37.799Z,100443.40625
2022-07-29T00:39:37.790Z,100446.60546875
2022-07-29T00:40:37.902Z,100447.57421875
2022-07-29T00:41:37.758Z,100446.5234375
2022-07-29T00:42:37.905Z,100444.66796875
2022-07-29T00:43:38.196Z,100443.06640625
2022-07-29T00:44:37.850Z,100443.20703125
2022-07-29T00:45:37.901Z,100437.21875
2022-07-29T00:46:40.884Z,100439.29296875
2022-07-29T00:47:38.132Z,100436.22265625
2022-07-29T00:48:37.939Z,100435.1953125
2022-07-29T00:49:37.906Z,100434.72265625
2022-07-29T00:50:37.920Z,100430.5625
2022-07-29T00:51:37.852Z,100433.46484375
2022-07-29T00:52:38.120Z,100425.3671875
2022-07-29T00:53:37.779Z,100427.9921875
2022-07-29T00:54:44.113Z,100425.359375
2022-07-29T00:55:37.856Z,100428.62109375
2022-07-29T00:56:37.872Z,100426.4921875
2022-07-29T00:57:43.928Z,100427.2265625
2022-07-29T00:58:38.143Z,100427.14453125
2022-07-29T00:59:37.869Z,100425.3359375
2022-07-29T01:00:37.904Z,100425.09765625
2022-07-29T01:01:37.842Z,100425.09765625
2022-07-29T01:02:38.261Z,100424.48046875
2022-07-29T01:03:37.758Z,100423.02734375
2022-07-29T01:04:37.773Z,100421.0390625
2022-07-29T01:05:49.642Z,100419.62890625
2022-07-29T01:06:37.782Z,100416.66796875
2022-07-29T01:07:38.230Z,100414.8125
2022-07-29T01:08:40.927Z,100411.25390625
2022-07-29T01:09:45.761Z,100410.13671875
2022-07-29T01:10:37.778Z,100403.98828125
2022-07-29T01:11:37.776Z,100404.33203125
2022-07-29T01:12:38.205Z,100403.17578125
2022-07-29T01:13:38.121Z,100404.671875
2022-07-29T01:14:37.883Z,100402.58984375
2022-07-29T01:15:37.778Z,100400.03125
2022-07-29T01:16:37.858Z,100402.05859375
2022-07-29T01:17:38.249Z,100401.11328125
2022-07-29T01:18:37.867Z,100400.203125
2022-07-29T01:19:40.758Z,100398.29296875
2022-07-29T01:20:37.858Z,100395.60546875
2022-07-29T01:21:37.850Z,100394.7265625
2022-07-29T01:22:38.231Z,100391.16015625
2022-07-29T01:23:37.846Z,100391.21875
2022-07-29T01:24:37.774Z,100391.41796875
2022-07-29T01:25:40.752Z,100386.859375
2022-07-29T01:26:37.884Z,100388.26171875
2022-07-29T01:27:38.211Z,100384.91796875
2022-07-29T01:28:37.889Z,100381.1484375
2022-07-29T01:29:38.767Z,100383.4765625
2022-07-29T01:30:37.781Z,100384.71484375
2022-07-29T01:31:40.271Z,100383.15625
2022-07-29T01:32:38.125Z,100382.03515625
2022-07-29T01:33:37.858Z,100382.94921875
2022-07-29T01:34:37.774Z,100381.94921875
2022-07-29T01:35:37.785Z,100382.3125
2022-07-29T01:36:40.771Z,100380
2022-07-29T01:37:37.862Z,100378.5625
2022-07-29T01:38:37.870Z,100377.4921875
2022-07-29T01:39:37.765Z,100371.57421875
2022-07-29T01:40:37.866Z,100372.65625
2022-07-29T01:41:37.909Z,100370.91015625
2022-07-29T01:42:38.152Z,100371.3203125
2022-07-29T01:43:38.196Z,100370.46875
2022-07-29T01:44:37.869Z,100371.68359375
2022-07-29T01:45:37.758Z,100369.8125
2022-07-29T01:46:37.877Z,100368.86328125
2022-07-29T01:47:43.820Z,100365.31640625
2022-07-29T01:48:38.039Z,100366.79296875
2022-07-29T01:49:37.908Z,100370.3828125
2022-07-29T01:50:37.851Z,100371.984375
2022-07-29T01:51:37.779Z,100372.0234375
2022-07-29T01:52:38.257Z,100370.92578125
2022-07-29T01:53:38.377Z,100370.33984375
2022-07-29T01:54:37.767Z,100370.17578125
2022-07-29T01:55:37.772Z,100369.91015625
2022-07-29T01:56:37.872Z,100369.2109375
2022-07-29T01:57:37.882Z,100369.9765625
2022-07-29T01:58:43.803Z,100368.42578125
2022-07-29T01:59:37.881Z,100370.87109375
2022-07-29T02:00:37.779Z,100372.39453125
2022-07-29T02:01:37.815Z,100375.609375
2022-07-29T02:02:38.201Z,100375.34375
2022-07-29T02:03:37.882Z,100378.41015625
2022-07-29T02:04:37.835Z,100379.8828125
2022-07-29T02:05:37.865Z,100382.21875
2022-07-29T02:06:37.759Z,100379.3359375
2022-07-29T02:07:38.226Z,100377.8828125
2022-07-29T02:08:37.869Z,100377.1875
2022-07-29T02:09:40.813Z,100374.796875
2022-07-29T02:10:37.889Z,100375.4375
2022-07-29T02:11:37.780Z,100371.4921875
2022-07-29T02:12:38.198Z,100371.27734375
2022-07-29T02:13:38.121Z,100371.62890625
2022-07-29T02:14:37.854Z,100373.703125
2022-07-29T02:15:37.762Z,100371.80859375
2022-07-29T02:16:37.824Z,100376.140625
2022-07-29T02:17:38.745Z,100375.7890625
2022-07-29T02:18:37.866Z,100369.96875
2022-07-29T02:19:37.908Z,100372.94140625
2022-07-29T02:20:40.875Z,100368.1640625
2022-07-29T02:21:37.870Z,100369.56640625
2022-07-29T02:22:38.203Z,100370.14453125
2022-07-29T02:23:45.156Z,100369.37890625
2022-07-29T02:24:37.786Z,100371.71484375
2022-07-29T02:25:38.354Z,100369.625
2022-07-29T02:26:37.775Z,100364.96484375
2022-07-29T02:27:38.250Z,100368.13671875
2022-07-29T02:28:38.116Z,100369.10546875
2022-07-29T02:29:37.881Z,100369.08203125
2022-07-29T02:30:37.782Z,100365.859375
2022-07-29T02:31:40.778Z,100366.62890625
2022-07-29T02:32:37.873Z,100367.265625
2022-07-29T02:33:38.190Z,100368.66796875
2022-07-29T02:34:37.881Z,100368.06640625
2022-07-29T02:35:37.832Z,100367.0390625
2022-07-29T02:36:37.772Z,100365.9765625
2022-07-29T02:37:37.776Z,100363.35546875
2022-07-29T02:38:38.189Z,100364.515625
2022-07-29T02:39:37.874Z,100362.1640625
2022-07-29T02:40:37.767Z,100362.265625
2022-07-29T02:41:37.784Z,100358.1796875
2022-07-29T02:42:40.785Z,100361.078125
2022-07-29T02:43:38.115Z,100361.40625
2022-07-29T02:44:37.864Z,100360.7421875
2022-07-29T02:45:37.755Z,100356.0546875
2022-07-29T02:46:37.833Z,100357.88671875
2022-07-29T02:47:42.022Z,100356.9921875
2022-07-29T02:48:38.259Z,100355.3984375
2022-07-29T02:49:37.765Z,100355.50390625
2022-07-29T02:50:37.845Z,100355.00390625
2022-07-29T02:51:43.644Z,100352.74609375
2022-07-29T02:52:37.853Z,100351.78515625
2022-07-29T02:53:43.832Z,100349.71875
2022-07-29T02:54:37.833Z,100348.91796875
2022-07-29T02:55:37.769Z,100347.65625
2022-07-29T02:56:37.848Z,100346.22265625
2022-07-29T02:57:54.424Z,100350.1875
2022-07-29T02:58:38.193Z,100346.42578125
2022-07-29T02:59:37.770Z,100350.19140625
2022-07-29T03:00:37.775Z,100346.6953125
2022-07-29T03:01:37.842Z,100348.39453125
2022-07-29T03:02:37.861Z,100344.56640625
2022-07-29T03:03:37.893Z,100346.328125
2022-07-29T03:04:40.813Z,100344.4375
2022-07-29T03:05:37.862Z,100347.1015625
2022-07-29T03:06:38.404Z,100345.7421875
2022-07-29T03:07:37.758Z,100350.359375
2022-07-29T03:08:38.264Z,100347.1015625
2022-07-29T03:09:37.854Z,100346.37109375
2022-07-29T03:10:37.730Z,100349.79296875
2022-07-29T03:11:46.209Z,100350.59375
2022-07-29T03:12:37.767Z,100351.671875
2022-07-29T03:13:38.122Z,100351.4765625
2022-07-29T03:14:37.841Z,100353.546875
2022-07-29T03:15:40.925Z,100353.55859375
2022-07-29T03:16:41.142Z,100356.2265625
2022-07-29T03:17:37.783Z,100357.42578125
2022-07-29T03:18:38.122Z,100357.46484375
2022-07-29T03:19:37.862Z,100359.86328125
2022-07-29T03:20:37.773Z,100357.375
2022-07-29T03:21:37.776Z,100359.56640625
2022-07-29T03:22:37.769Z,100359.76953125
2022-07-29T03:23:38.234Z,100355.45703125
2022-07-29T03:24:37.921Z,100351.33984375
2022-07-29T03:25:37.754Z,100352.34375
2022-07-29T03:26:40.890Z,100352.05078125
2022-07-29T03:27:37.844Z,100354.1796875
2022-07-29T03:28:37.806Z,100348.8984375
2022-07-29T03:29:37.776Z,100354.484375
2022-07-29T03:30:37.773Z,100354.08984375
2022-07-29T03:31:37.785Z,100353.4921875
2022-07-29T03:32:37.893Z,100353.89453125
2022-07-29T03:33:38.199Z,100350.5078125
2022-07-29T03:34:37.956Z,100351.171875
2022-07-29T03:35:37.749Z,100348.078125
2022-07-29T03:36:37.905Z,100352.03125
2022-07-29T03:37:40.766Z,100350.23828125
2022-07-29T03:38:38.125Z,100351.16796875
2022-07-29T03:39:37.840Z,100353.42578125
2022-07-29T03:40:37.754Z,100351.8984375
2022-07-29T03:41:37.759Z,100353.42578125
2022-07-29T03:42:37.770Z,100352.92578125
2022-07-29T03:43:38.128Z,100350.59765625
2022-07-29T03:44:37.775Z,100348.37109375
2022-07-29T03:45:37.766Z,100349.95703125
2022-07-29T03:46:37.896Z,100348.12890625
2022-07-29T03:47:50.063Z,100350.55078125
2022-07-29T03:48:43.935Z,100350.90625
2022-07-29T03:49:37.873Z,100351.26953125
2022-07-29T03:50:37.888Z,100345.31640625
2022-07-29T03:51:37.771Z,100345.984375
2022-07-29T03:52:37.907Z,100347.8359375
2022-07-29T03:53:38.193Z,100344.109375
2022-07-29T03:54:37.902Z,100343.51171875
2022-07-29T03:55:37.891Z,100347.25390625
2022-07-29T03:56:37.775Z,100344.625
2022-07-29T03:57:37.759Z,100345.578125
2022-07-29T03:58:38.132Z,100347.4375
2022-07-29T03:59:40.779Z,100345.140625
2022-07-29T04:00:37.869Z,100344.43359375
2022-07-29T04:01:37.843Z,100342.7265625
2022-07-29T04:02:37.770Z,100342.453125
2022-07-29T04:03:38.259Z,100343.56640625
2022-07-29T04:04:37.834Z,100344.87890625
2022-07-29T04:05:37.780Z,100342.43359375
2022-07-29T04:06:37.773Z,100346.890625
2022-07-29T04:07:37.773Z,100346.70703125
2022-07-29T04:08:38.193Z,100349.078125
2022-07-29T04:09:37.862Z,100349.96875
2022-07-29T04:10:40.769Z,100348.19921875
2022-07-29T04:12:01.877Z,100348.05859375
2022-07-29T04:12:37.776Z,100351.80078125
2022-07-29T04:13:37.771Z,100353.91015625
2022-07-29T04:14:37.776Z,100351.25390625
2022-07-29T04:15:37.803Z,100351.53515625
2022-07-29T04:16:37.819Z,100351.75
2022-07-29T04:17:37.763Z,100350.05078125
2022-07-29T04:18:38.134Z,100351.4921875
2022-07-29T04:19:37.855Z,100352.234375
2022-07-29T04:20:37.747Z,100351.5
2022-07-29T04:21:40.835Z,100351.05859375
2022-07-29T04:22:37.851Z,100354.2421875
2022-07-29T04:23:47.520Z,100350.703125
2022-07-29T04:24:37.867Z,100352.1953125
2022-07-29T04:25:37.902Z,100353.67578125
2022-07-29T04:26:37.771Z,100351.28515625
2022-07-29T04:27:37.778Z,100353.91015625
2022-07-29T04:28:38.196Z,100353.0234375
2022-07-29T04:29:37.860Z,100355.98046875
2022-07-29T04:30:37.765Z,100355.53515625
2022-07-29T04:31:37.836Z,100355.15234375
2022-07-29T04:32:40.761Z,100351.01953125
2022-07-29T04:33:38.114Z,100351.40625
2022-07-29T04:34:37.868Z,100351.77734375
2022-07-29T04:35:38.653Z,100348.03515625
2022-07-29T04:36:37.876Z,100350.42578125
2022-07-29T04:37:37.773Z,100347.09765625
2022-07-29T04:38:38.121Z,100350.25
2022-07-29T04:39:37.746Z,100348.421875
2022-07-29T04:40:38.697Z,100350.1171875
2022-07-29T04:41:37.829Z,100349.88671875
2022-07-29T04:42:41.981Z,100348.12890625
2022-07-29T04:43:43.893Z,100346.33984375
2022-07-29T04:44:39.451Z,100344.4609375
2022-07-29T04:45:37.772Z,100345.72265625
2022-07-29T04:46:37.856Z,100345.09765625
2022-07-29T04:47:37.768Z,100343.9765625
2022-07-29T04:48:38.216Z,100346.09765625
2022-07-29T04:49:37.906Z,100343.99609375
2022-07-29T04:50:37.741Z,100344.51171875
2022-07-29T04:51:37.782Z,100345.53125
2022-07-29T04:52:37.867Z,100345.25
2022-07-29T04:53:37.789Z,100348.109375
2022-07-29T04:54:40.774Z,100347.26953125
2022-07-29T04:55:39.088Z,100346.58984375
2022-07-29T04:56:37.764Z,100342.859375
2022-07-29T04:57:37.754Z,100343.20703125
2022-07-29T04:58:38.196Z,100343.08203125
2022-07-29T04:59:37.962Z,100340.8046875
2022-07-29T05:00:37.771Z,100342.51171875
2022-07-29T05:01:37.858Z,100340.5546875
2022-07-29T05:02:37.915Z,100343.0234375
2022-07-29T05:03:38.120Z,100345.58984375
2022-07-29T05:04:37.837Z,100348.2890625
2022-07-29T05:05:40.796Z,100348.55859375
2022-07-29T05:06:37.985Z,100347.16796875
2022-07-29T05:07:37.856Z,100347.53515625
2022-07-29T05:08:37.798Z,100348.96875
2022-07-29T05:09:37.863Z,100349.00390625
2022-07-29T05:10:37.770Z,100348.10546875
2022-07-29T05:11:37.763Z,100347.34375
2022-07-29T05:12:37.878Z,100348.80859375
2022-07-29T05:13:46.082Z,100347.9765625
2022-07-29T05:14:37.842Z,100348.28125
2022-07-29T05:15:37.884Z,100351.80078125
2022-07-29T05:16:40.787Z,100350.83984375
2022-07-29T05:17:37.852Z,100352
2022-07-29T05:18:38.196Z,100352.83203125
2022-07-29T05:19:39.683Z,100354.35546875
2022-07-29T05:20:37.773Z,100352.82421875
2022-07-29T05:21:37.855Z,100354.98046875
2022-07-29T05:22:37.769Z,100358.56640625
2022-07-29T05:23:38.199Z,100357.30078125
2022-07-29T05:24:37.855Z,100354.671875
2022-07-29T05:25:43.192Z,100356.59375
2022-07-29T05:26:37.852Z,100358.5546875
2022-07-29T05:27:41.177Z,100357.6484375
2022-07-29T05:28:38.156Z,100363.3671875
2022-07-29T05:29:43.737Z,100365.05859375
2022-07-29T05:30:37.869Z,100363.921875
2022-07-29T05:31:37.858Z,100364.45703125
2022-07-29T05:32:38.261Z,100364.05078125
2022-07-29T05:33:37.774Z,100363.3125
2022-07-29T05:34:37.776Z,100365.33203125
2022-07-29T05:35:37.857Z,100367.32421875
2022-07-29T05:36:37.863Z,100366
2022-07-29T05:37:38.189Z,100367.9296875
2022-07-29T05:38:37.886Z,100368.0234375
2022-07-29T05:39:47.288Z,100365.84375
2022-07-29T05:40:37.778Z,100367.48828125
2022-07-29T05:41:37.772Z,100366.24609375
2022-07-29T05:42:38.263Z,100367.26171875
2022-07-29T05:43:43.841Z,100369.1796875
2022-07-29T05:44:37.863Z,100368.76953125
2022-07-29T05:45:49.827Z,100372.0390625
2022-07-29T05:46:37.808Z,100366.8125
2022-07-29T05:47:38.278Z,100361.13671875
2022-07-29T05:48:37.906Z,100355.3671875
2022-07-29T05:49:37.859Z,100359.03125
2022-07-29T05:50:37.838Z,100351.015625
2022-07-29T05:51:37.763Z,100351.875
2022-07-29T05:52:38.130Z,100350.20703125
2022-07-29T05:53:38.864Z,100351.73046875
2022-07-29T05:54:37.861Z,100351.171875
2022-07-29T05:55:37.772Z,100346.828125
2022-07-29T05:56:37.845Z,100346.44921875
2022-07-29T05:57:37.773Z,100345.40234375
2022-07-29T05:58:38.192Z,100346.32421875
2022-07-29T05:59:40.753Z,100350.546875
2022-07-29T06:00:37.843Z,100345.89453125
2022-07-29T06:01:37.786Z,100351.3046875
2022-07-29T06:02:37.775Z,100350.3359375
2022-07-29T06:03:38.113Z,100355.0703125
2022-07-29T06:04:37.871Z,100356.41015625
2022-07-29T06:05:37.775Z,100358.15625
2022-07-29T06:06:37.770Z,100359.92578125
2022-07-29T06:07:37.773Z,100356.79296875
2022-07-29T06:08:38.186Z,100354.703125
2022-07-29T06:09:37.839Z,100357.81640625
2022-07-29T06:10:40.762Z,100356.0625
2022-07-29T06:11:37.895Z,100357.953125
2022-07-29T06:12:37.755Z,100355.03515625
2022-07-29T06:13:37.911Z,100358.83984375
2022-07-29T06:14:37.859Z,100360.32421875
2022-07-29T06:15:37.811Z,100352.2578125
2022-07-29T06:16:37.838Z,100353.3046875
2022-07-29T06:17:37.765Z,100362.5546875
2022-07-29T06:18:38.121Z,100357.4921875
2022-07-29T06:19:37.859Z,100361.7421875
2022-07-29T06:20:37.771Z,100361.03515625
2022-07-29T06:21:38.668Z,100352.33203125
2022-07-29T06:22:37.755Z,100361.4609375
2022-07-29T06:23:38.198Z,100353.25390625
2022-07-29T06:24:37.869Z,100355.69921875
2022-07-29T06:25:37.893Z,100356.8984375
2022-07-29T06:26:40.811Z,100353.234375
2022-07-29T06:27:38.120Z,100360.94140625
2022-07-29T06:28:38.117Z,100364.4453125
2022-07-29T06:29:37.879Z,100361.2890625
2022-07-29T06:30:37.786Z,100359.7421875
2022-07-29T06:31:37.757Z,100362.81640625
2022-07-29T06:32:42.736Z,100360.89453125
2022-07-29T06:33:37.772Z,100365.49609375
2022-07-29T06:34:37.755Z,100362.51953125
2022-07-29T06:35:42.331Z,100352.6953125
2022-07-29T06:36:37.932Z,100359.765625
2022-07-29T06:37:41.186Z,100358.29296875
2022-07-29T06:38:41.994Z,100357.11328125
2022-07-29T06:39:37.792Z,100356.90625
2022-07-29T06:40:37.872Z,100359.95703125
2022-07-29T06:41:37.771Z,100355.2109375
2022-07-29T06:42:38.412Z,100354.765625
2022-07-29T06:43:51.029Z,100354.734375
2022-07-29T06:44:37.777Z,100348.90625
2022-07-29T06:45:37.772Z,100351.125
2022-07-29T06:46:37.921Z,100353.2265625
2022-07-29T06:47:38.123Z,100352.04296875
2022-07-29T06:48:40.859Z,100355.41015625
2022-07-29T06:49:37.858Z,100352.890625
2022-07-29T06:50:37.915Z,100346.0546875
2022-07-29T06:51:37.863Z,100351.57421875
2022-07-29T06:52:37.868Z,100348.66015625
2022-07-29T06:53:38.193Z,100355.48046875
2022-07-29T06:54:37.771Z,100355.21875
2022-07-29T06:55:37.921Z,100360.09375
2022-07-29T06:56:38.489Z,100358.64453125
2022-07-29T06:57:37.771Z,100365.55859375
2022-07-29T06:58:38.199Z,100364.4375
2022-07-29T06:59:40.776Z,100365.52734375
2022-07-29T07:00:37.848Z,100367.5703125
2022-07-29T07:01:37.894Z,100368.09375
2022-07-29T07:02:37.944Z,100367.7265625
2022-07-29T07:03:38.196Z,100370.5078125
2022-07-29T07:04:37.863Z,100373.53125
2022-07-29T07:05:37.767Z,100372.93359375
2022-07-29T07:06:37.814Z,100381.83984375
2022-07-29T07:07:37.872Z,100380.078125
2022-07-29T07:08:38.198Z,100377.1484375
2022-07-29T07:09:40.494Z,100375.43359375
2022-07-29T07:10:40.774Z,100378.5859375
2022-07-29T07:11:37.858Z,100382.33203125
2022-07-29T07:12:37.805Z,100378.73828125
2022-07-29T07:13:38.195Z,100383.0546875
2022-07-29T07:14:37.832Z,100378.98046875
2022-07-29T07:15:39.726Z,100379.76953125
2022-07-29T07:16:37.834Z,100386.15234375
2022-07-29T07:17:37.782Z,100385.19140625
2022-07-29T07:18:38.194Z,100388.07421875
2022-07-29T07:19:37.787Z,100390.17578125
2022-07-29T07:20:37.776Z,100389.41015625
2022-07-29T07:21:40.788Z,100384.1875
2022-07-29T07:22:38.999Z,100386.78515625
2022-07-29T07:23:38.242Z,100391.078125
2022-07-29T07:24:37.836Z,100387.703125
2022-07-29T07:25:37.758Z,100382.8359375
2022-07-29T07:26:37.848Z,100387.10546875
2022-07-29T07:27:37.773Z,100390.3515625
2022-07-29T07:28:37.899Z,100381.9921875
2022-07-29T07:29:37.856Z,100387.53125
2022-07-29T07:30:37.774Z,100387.53125
2022-07-29T07:31:37.826Z,100388.640625
2022-07-29T07:32:40.771Z,100382.62109375
2022-07-29T07:33:37.879Z,100388.40625
2022-07-29T07:34:37.852Z,100384.078125
2022-07-29T07:35:37.753Z,100379.27734375
2022-07-29T07:36:37.777Z,100381.1875
2022-07-29T07:37:37.762Z,100380.703125
2022-07-29T07:38:38.130Z,100379.40625
2022-07-29T07:39:37.759Z,100376.765625
2022-07-29T07:40:37.765Z,100380.234375
2022-07-29T07:41:37.894Z,100376.85546875
2022-07-29T07:42:37.859Z,100376.62890625
2022-07-29T07:43:43.857Z,100382.515625
2022-07-29T07:44:57.371Z,100382.14453125
2022-07-29T07:45:37.915Z,100386.6640625
2022-07-29T07:46:37.788Z,100382.7265625
2022-07-29T07:47:37.852Z,100378.47265625
2022-07-29T07:48:38.268Z,100384.71875
2022-07-29T07:49:37.891Z,100380.25390625
2022-07-29T07:50:37.802Z,100374.515625
2022-07-29T07:51:37.760Z,100379.7421875
2022-07-29T07:52:37.771Z,100378.46875
2022-07-29T07:53:38.195Z,100380.8203125
2022-07-29T07:54:40.796Z,100386.6328125
2022-07-29T07:56:07.706Z,100382.609375
2022-07-29T07:56:37.778Z,100383.62890625
2022-07-29T07:57:37.772Z,100384.328125
2022-07-29T07:58:38.211Z,100382.09765625
2022-07-29T07:59:37.939Z,100385.26953125
2022-07-29T08:00:37.778Z,100390.26953125
2022-07-29T08:01:55.270Z,100393.38671875
2022-07-29T08:02:37.807Z,100392.01953125
2022-07-29T08:03:38.194Z,100385.5703125
2022-07-29T08:04:37.839Z,100390.66015625
2022-07-29T08:05:40.850Z,100391.3515625
2022-07-29T08:06:37.878Z,100388.9296875
2022-07-29T08:07:37.846Z,100390.76953125
2022-07-29T08:08:38.199Z,100389.73046875
2022-07-29T08:09:37.845Z,100388.51953125
2022-07-29T08:10:37.768Z,100386.9140625
2022-07-29T08:11:37.793Z,100386.7265625
2022-07-29T08:12:37.762Z,100387.79296875
2022-07-29T08:13:38.194Z,100383.7734375
2022-07-29T08:14:37.966Z,100382.65234375
2022-07-29T08:15:37.769Z,100383.41015625
2022-07-29T08:16:40.914Z,100381.63671875
2022-07-29T08:17:37.832Z,100381.9765625
2022-07-29T08:18:38.192Z,100387.1015625
2022-07-29T08:19:37.963Z,100381.97265625
2022-07-29T08:20:37.791Z,100384.171875
2022-07-29T08:21:37.762Z,100383.3203125
2022-07-29T08:22:37.763Z,100386.4765625
2022-07-29T08:23:46.058Z,100389.5703125
2022-07-29T08:24:37.852Z,100390.69140625
2022-07-29T08:25:38.742Z,100392.9296875
2022-07-29T08:26:37.775Z,100392.03515625
2022-07-29T08:27:43.849Z,100391.90234375
2022-07-29T08:28:38.127Z,100392.0859375
2022-07-29T08:29:37.826Z,100392.5546875
2022-07-29T08:30:37.865Z,100392.22265625
2022-07-29T08:31:37.825Z,100389.140625
2022-07-29T08:32:53.357Z,100389.72265625
2022-07-29T08:33:37.867Z,100391.21484375
2022-07-29T08:34:37.762Z,100387.4453125
2022-07-29T08:35:37.764Z,100388.28515625
2022-07-29T08:36:37.763Z,100391.65625
2022-07-29T08:37:37.799Z,100391.9453125
2022-07-29T08:38:40.773Z,100388.203125
2022-07-29T08:39:37.841Z,100390.8984375
2022-07-29T08:40:37.758Z,100391.60546875
2022-07-29T08:41:37.784Z,100396.08203125
2022-07-29T08:42:37.747Z,100392.10546875
2022-07-29T08:43:37.784Z,100394.43359375
2022-07-29T08:44:37.757Z,100395.21875
2022-07-29T08:45:37.901Z,100392.57421875
2022-07-29T08:46:37.770Z,100387.53515625
2022-07-29T08:47:38.193Z,100390.98828125
2022-07-29T08:48:37.883Z,100384.734375
2022-07-29T08:49:40.780Z,100382.86328125
2022-07-29T08:50:37.869Z,100383.53515625
2022-07-29T08:51:49.314Z,100384.2734375
2022-07-29T08:52:37.770Z,100389.38671875
2022-07-29T08:53:37.767Z,100387.77734375
2022-07-29T08:54:37.778Z,100389.25
2022-07-29T08:55:37.873Z,100387.94140625
2022-07-29T08:56:37.778Z,100392.58203125
2022-07-29T08:57:38.192Z,100390.390625
2022-07-29T08:58:38.322Z,100387.875
2022-07-29T08:59:37.867Z,100389.83203125
2022-07-29T09:00:40.869Z,100389.19921875
2022-07-29T09:01:42.698Z,100392.26953125
2022-07-29T09:02:37.755Z,100389.8203125
2022-07-29T09:03:37.862Z,100387.96875
2022-07-29T09:04:37.761Z,100392.80078125
2022-07-29T09:05:40.677Z,100389.55859375
2022-07-29T09:06:37.761Z,100390.5703125
2022-07-29T09:07:38.196Z,100390.3046875
2022-07-29T09:08:37.846Z,100390.80859375
2022-07-29T09:09:37.778Z,100393.38671875
2022-07-29T09:10:37.922Z,100388.76953125
2022-07-29T09:11:40.774Z,100390.34375
2022-07-29T09:12:38.410Z,100389.70703125
2022-07-29T09:13:38.120Z,100387.83984375
2022-07-29T09:14:37.913Z,100390.92578125
2022-07-29T09:15:37.766Z,100389.16015625
2022-07-29T09:16:52.789Z,100388.62109375
2022-07-29T09:17:38.182Z,100392.5234375
2022-07-29T09:18:37.794Z,100389.7578125
2022-07-29T09:19:37.775Z,100390.80078125
2022-07-29T09:20:37.764Z,100388.4609375
2022-07-29T09:21:37.846Z,100389.76953125
2022-07-29T09:22:42.272Z,100387.3359375
2022-07-29T09:23:37.859Z,100381.359375
2022-07-29T09:24:37.764Z,100382.77734375
2022-07-29T09:25:37.861Z,100385.9375
2022-07-29T09:26:37.749Z,100378.22265625
2022-07-29T09:27:38.187Z,100379.19921875
2022-07-29T09:28:38.129Z,100380.375
2022-07-29T09:29:37.775Z,100378.29296875
2022-07-29T09:30:37.899Z,100378.4453125
2022-07-29T09:31:37.865Z,100379.46875
2022-07-29T09:32:38.194Z,100377.9921875
2022-07-29T09:33:40.791Z,100379.90625
2022-07-29T09:34:37.859Z,100381.01953125
2022-07-29T09:35:37.770Z,100373.88671875
2022-07-29T09:36:37.777Z,100373.39453125
2022-07-29T09:37:38.192Z,100375.1171875
2022-07-29T09:38:37.843Z,100374.30859375
2022-07-29T09:39:37.770Z,100370.84765625
2022-07-29T09:40:37.788Z,100369.01171875
2022-07-29T09:41:37.827Z,100369.4609375
2022-07-29T09:42:38.193Z,100369.5625
2022-07-29T09:43:37.872Z,100370.73046875
2022-07-29T09:44:40.834Z,100370.7578125
2022-07-29T09:45:37.981Z,100372.546875
2022-07-29T09:46:37.796Z,100370.66796875
2022-07-29T09:47:38.208Z,100366.62890625
2022-07-29T09:48:38.012Z,100362.9140625
2022-07-29T09:49:37.762Z,100363.62109375
2022-07-29T09:50:37.870Z,100363.3203125
2022-07-29T09:51:38.590Z,100368.828125
2022-07-29T09:52:37.767Z,100366.69140625
2022-07-29T09:53:37.763Z,100369.203125
2022-07-29T09:54:37.858Z,100363.5234375
2022-07-29T09:55:40.753Z,100364.125
2022-07-29T09:56:37.845Z,100366.11328125
2022-07-29T09:57:38.197Z,100365.7421875
2022-07-29T09:58:37.853Z,100366.80078125
2022-07-29T09:59:37.747Z,100366.12109375
2022-07-29T10:00:37.873Z,100361.15625